createdAt,value
2019-03-04T03:16:59.300Z,12.80
2019-03-04T03:19:28.758Z,12.80
2019-03-04T03:21:57.875Z,12.70
2019-03-04T03:24:27.012Z,12.70
2019-03-04T03:26:56.132Z,12.70
2019-03-04T03:29:25.252Z,12.80
2019-03-04T03:31:54.393Z,12.80
2019-03-04T03:34:23.840Z,12.90
2019-03-04T03:36:52.972Z,12.90
2019-03-04T03:39:22.096Z,12.80
2019-03-04T03:41:51.216Z,12.80
2019-03-04T03:44:20.345Z,12.80
2019-03-04T03:46:49.469Z,12.70
2019-03-04T03:49:18.604Z,12.70
2019-03-04T03:51:48.527Z,12.70
2019-03-04T03:54:17.653Z,12.70
2019-03-04T03:56:46.791Z,12.70
2019-03-04T03:59:15.940Z,12.70
2019-03-04T04:01:45.067Z,12.60
2019-03-04T04:04:14.192Z,12.70
2019-03-04T04:06:44.480Z,12.60
2019-03-04T04:09:13.852Z,12.70
2019-03-04T04:11:43.664Z,12.80
2019-03-04T04:14:12.800Z,13.00
2019-03-04T04:16:41.912Z,12.90
2019-03-04T04:19:11.026Z,13.00
2019-03-04T04:21:40.168Z,12.90
2019-03-04T04:24:09.290Z,12.90
2019-03-04T04:26:38.434Z,12.80
2019-03-04T04:29:09.186Z,12.80
2019-03-04T04:31:38.391Z,12.70
2019-03-04T04:34:07.611Z,12.70
2019-03-04T04:36:36.758Z,12.60
2019-03-04T04:39:06.243Z,12.70
2019-03-04T04:41:35.736Z,12.70
2019-03-04T04:44:04.868Z,12.60
2019-03-04T04:46:49.446Z,12.70
2019-03-04T04:49:19.203Z,12.70
2019-03-04T04:51:48.483Z,12.70
2019-03-04T04:54:17.603Z,12.70
2019-03-04T04:56:46.742Z,12.80
2019-03-04T04:59:16.956Z,13.00
2019-03-04T05:01:46.099Z,13.00
2019-03-04T05:04:15.583Z,13.00
2019-03-04T05:06:44.703Z,13.00
2019-03-04T05:09:13.820Z,13.00
2019-03-04T05:11:42.954Z,13.00
2019-03-04T05:14:12.075Z,13.00
2019-03-04T05:16:42.285Z,13.00
2019-03-04T05:19:13.359Z,13.00
2019-03-04T05:21:42.474Z,13.00
2019-03-04T05:24:11.595Z,13.00
2019-03-04T05:26:40.732Z,12.90
2019-03-04T05:29:09.852Z,13.00
2019-03-04T05:31:39.331Z,13.00
2019-03-04T05:34:08.452Z,13.00
2019-03-04T05:36:37.590Z,12.90
2019-03-04T05:39:07.447Z,13.00
2019-03-04T05:41:36.590Z,13.00
2019-03-04T05:44:05.702Z,13.00
2019-03-04T05:46:34.839Z,13.10
2019-03-04T05:49:03.957Z,13.10
2019-03-04T05:51:33.096Z,13.10
2019-03-04T05:54:03.846Z,13.00
2019-03-04T05:56:32.979Z,13.10
2019-03-04T05:59:03.414Z,13.00
2019-03-04T06:01:32.535Z,13.00
2019-03-04T06:04:04.364Z,13.10
2019-03-04T06:06:50.549Z,13.20
2019-03-04T06:09:19.679Z,13.20
2019-03-04T06:11:48.799Z,13.10
2019-03-04T06:14:17.919Z,13.00
2019-03-04T06:16:47.692Z,13.00
2019-03-04T06:19:16.977Z,13.00
2019-03-04T06:21:46.111Z,13.20
2019-03-04T06:24:15.252Z,13.10
2019-03-04T06:26:44.377Z,13.10
2019-03-04T06:29:13.511Z,13.10
2019-03-04T06:31:42.629Z,13.10
2019-03-04T06:34:11.767Z,13.10
2019-03-04T06:36:41.243Z,12.90
2019-03-04T06:39:10.365Z,12.80
2019-03-04T06:41:39.495Z,12.80
2019-03-04T06:44:08.615Z,12.90
2019-03-04T06:46:37.759Z,12.90
2019-03-04T06:49:06.883Z,13.00
2019-03-04T06:51:38.160Z,13.20
2019-03-04T06:54:27.446Z,13.20
2019-03-04T06:57:02.542Z,13.30
2019-03-04T07:00:02.559Z,13.40
2019-03-04T07:02:35.346Z,13.40
2019-03-04T07:05:19.684Z,13.40
2019-03-04T07:07:49.774Z,13.40
2019-03-04T07:10:18.896Z,13.40
2019-03-04T07:12:48.368Z,13.30
2019-03-04T07:15:17.504Z,13.40
2019-03-04T07:17:46.623Z,13.40
2019-03-04T07:20:20.368Z,13.40
2019-03-04T07:22:49.482Z,13.50
2019-03-04T07:25:18.614Z,13.40
2019-03-04T07:27:47.752Z,13.40
2019-03-04T07:30:20.322Z,13.40
2019-03-04T07:32:49.458Z,13.40
2019-03-04T07:35:18.581Z,13.40
2019-03-04T07:37:49.348Z,13.60
2019-03-04T07:40:20.042Z,13.60
2019-03-04T07:42:49.173Z,13.60
2019-03-04T07:45:18.422Z,13.50
2019-03-04T07:47:47.591Z,13.50
2019-03-04T07:50:16.715Z,13.60
2019-03-04T07:52:45.831Z,13.60
2019-03-04T07:55:14.976Z,13.70
2019-03-04T07:57:44.104Z,13.70
2019-03-04T08:00:13.239Z,13.60
2019-03-04T08:02:42.354Z,13.60
2019-03-04T08:05:12.137Z,13.70
2019-03-04T08:07:43.499Z,13.60
2019-03-04T08:10:21.584Z,13.60
2019-03-04T08:12:56.888Z,13.70
2019-03-04T08:15:25.999Z,13.80
2019-03-04T08:17:55.132Z,13.80
2019-03-04T08:20:24.247Z,13.80
2019-03-04T08:22:53.388Z,14.00
2019-03-04T08:25:22.530Z,14.00
2019-03-04T08:27:52.007Z,13.90
2019-03-04T08:30:21.216Z,13.90
2019-03-04T08:32:50.335Z,13.90
2019-03-04T08:35:19.792Z,13.90
2019-03-04T08:37:48.911Z,13.90
2019-03-04T08:40:19.152Z,13.80
2019-03-04T08:42:48.286Z,13.90
2019-03-04T08:45:19.204Z,14.00
2019-03-04T08:47:48.340Z,13.90
2019-03-04T08:50:18.232Z,14.10
2019-03-04T08:52:47.371Z,14.00
2019-03-04T08:55:17.619Z,13.90
2019-03-04T08:57:47.018Z,13.90
2019-03-04T09:00:18.169Z,14.00
2019-03-04T09:02:47.359Z,14.00
2019-03-04T09:05:16.520Z,14.00
2019-03-04T09:07:45.725Z,14.10
2019-03-04T09:10:22.091Z,13.90
2019-03-04T09:12:51.498Z,13.80
2019-03-04T09:15:20.903Z,13.90
2019-03-04T09:17:50.923Z,13.90
2019-03-04T09:20:21.096Z,14.00
2019-03-04T09:22:50.216Z,14.00
2019-03-04T09:25:30.970Z,13.90
2019-03-04T09:28:00.237Z,13.70
2019-03-04T09:30:29.366Z,13.50
2019-03-04T09:32:58.499Z,12.90
2019-03-04T09:35:27.620Z,11.60
2019-03-04T09:37:56.746Z,10.70
2019-03-04T09:40:30.728Z,10.20
2019-03-04T09:43:01.217Z,10.00
2019-03-04T09:45:38.384Z,9.90
2019-03-04T09:48:02.652Z,9.70
2019-03-04T09:50:31.932Z,9.70
2019-03-04T09:53:01.039Z,9.70
2019-03-04T09:55:30.176Z,9.90
2019-03-04T09:57:59.321Z,10.00
2019-03-04T10:00:32.458Z,10.10
2019-03-04T10:03:13.993Z,10.10
2019-03-04T10:05:51.932Z,10.10
2019-03-04T10:08:32.584Z,10.10
2019-03-04T10:11:07.328Z,10.10
2019-03-04T10:13:39.721Z,10.20
2019-03-04T10:16:25.230Z,10.30
2019-03-04T10:19:15.969Z,10.30
2019-03-04T10:21:54.668Z,10.20
2019-03-04T10:24:42.199Z,10.40
2019-03-04T10:27:32.914Z,10.50
2019-03-04T10:30:20.231Z,10.70
2019-03-04T10:33:18.464Z,10.70
2019-03-04T10:35:50.920Z,10.80
2019-03-04T10:38:44.168Z,10.80
2019-03-04T10:41:22.203Z,10.70
2019-03-04T10:44:28.015Z,10.80
2019-03-04T10:46:58.398Z,10.90
2019-03-04T10:49:28.150Z,11.00
2019-03-04T10:51:57.288Z,11.00
2019-03-04T10:54:26.403Z,11.00
2019-03-04T10:56:55.523Z,11.20
2019-03-04T10:59:24.654Z,11.30
2019-03-04T11:01:53.776Z,11.40
2019-03-04T11:04:22.906Z,11.60
2019-03-04T11:06:52.037Z,11.70
2019-03-04T11:09:21.184Z,11.80
2019-03-04T11:11:50.308Z,11.80
2019-03-04T11:14:19.426Z,11.90
2019-03-04T11:16:48.550Z,12.00
2019-03-04T11:19:17.676Z,12.10
2019-03-04T11:21:46.818Z,12.10
2019-03-04T11:24:15.937Z,12.00
2019-03-04T11:26:45.117Z,12.10
2019-03-04T11:29:15.894Z,12.30
2019-03-04T11:31:45.167Z,12.40
2019-03-04T11:34:14.292Z,12.50
2019-03-04T11:36:43.407Z,12.70
2019-03-04T11:39:17.479Z,12.90
2019-03-04T11:41:46.599Z,13.00
2019-03-04T11:44:15.735Z,13.10
2019-03-04T11:46:44.871Z,13.10
2019-03-04T11:49:13.988Z,13.10
2019-03-04T11:51:43.107Z,13.00
2019-03-04T11:54:12.241Z,12.90
2019-03-04T11:56:41.360Z,12.70
2019-03-04T11:59:10.479Z,12.80
2019-03-04T12:01:42.235Z,12.80
2019-03-04T12:04:11.355Z,12.90
2019-03-04T12:06:40.492Z,12.90
2019-03-04T12:09:11.819Z,12.90
2019-03-04T12:11:41.999Z,12.80
2019-03-04T12:14:11.203Z,12.70
2019-03-04T12:16:40.339Z,12.70
2019-03-04T12:19:09.481Z,12.70
2019-03-04T12:21:38.958Z,12.80
2019-03-04T12:24:08.996Z,12.80
2019-03-04T12:26:38.379Z,12.80
2019-03-04T12:29:07.504Z,12.70
2019-03-04T12:31:38.282Z,12.70
2019-03-04T12:34:07.476Z,12.90
2019-03-04T12:36:37.500Z,13.20
2019-03-04T12:39:06.639Z,13.40
2019-03-04T12:41:37.366Z,13.50
2019-03-04T12:44:06.503Z,13.60
2019-03-04T12:46:35.651Z,13.50
2019-03-04T12:49:04.766Z,13.50
2019-03-04T12:51:33.895Z,13.40
2019-03-04T12:54:03.032Z,13.40
2019-03-04T12:56:33.235Z,13.50
2019-03-04T12:59:03.731Z,13.70
2019-03-04T13:01:32.862Z,13.80
2019-03-04T13:04:02.543Z,14.00
2019-03-04T13:06:31.667Z,14.00
2019-03-04T13:09:13.903Z,13.90
2019-03-04T13:11:37.660Z,13.90
2019-03-04T13:14:06.787Z,13.90
2019-03-04T13:16:35.910Z,13.80
2019-03-04T13:19:06.013Z,13.90
2019-03-04T13:21:35.239Z,13.90
2019-03-04T13:24:04.365Z,13.80
2019-03-04T13:26:33.499Z,13.60
2019-03-04T13:29:04.818Z,13.60
2019-03-04T13:31:33.464Z,13.50
2019-03-04T13:34:03.084Z,13.40
2019-03-04T13:36:32.545Z,13.50
2019-03-04T13:39:04.924Z,13.40
2019-03-04T13:41:36.691Z,13.30
2019-03-04T13:44:05.810Z,13.20
2019-03-04T13:46:34.924Z,13.40
2019-03-04T13:49:04.059Z,13.40
2019-03-04T13:51:33.178Z,13.20
2019-03-04T13:54:03.953Z,13.20
2019-03-04T13:56:33.408Z,13.20
2019-03-04T13:59:03.354Z,13.10
2019-03-04T14:01:35.586Z,13.00
2019-03-04T14:04:04.695Z,12.90
2019-03-04T14:06:33.831Z,12.90
2019-03-04T14:09:05.006Z,13.00
2019-03-04T14:11:35.902Z,12.90
2019-03-04T14:14:05.027Z,12.80
2019-03-04T14:16:34.146Z,12.60
2019-03-04T14:19:03.411Z,12.30
2019-03-04T14:21:32.552Z,12.20
2019-03-04T14:24:02.506Z,12.20
2019-03-04T14:26:31.635Z,12.10
2019-03-04T14:29:02.151Z,11.80
2019-03-04T14:31:31.262Z,11.50
2019-03-04T14:34:00.387Z,9.90
2019-03-04T14:36:29.516Z,8.40
2019-03-04T14:38:59.600Z,7.60
2019-03-04T14:41:28.710Z,7.20
2019-03-04T14:43:57.845Z,6.90
2019-03-04T14:46:26.963Z,6.90
2019-03-04T14:48:56.419Z,6.90
2019-03-04T14:51:25.556Z,7.00
2019-03-04T14:53:54.691Z,7.10
2019-03-04T14:56:23.794Z,7.20
2019-03-04T14:59:09.566Z,7.30
2019-03-04T15:01:23.896Z,7.50
2019-03-04T15:03:53.019Z,7.60
2019-03-04T15:06:22.558Z,7.70
2019-03-04T15:08:51.683Z,7.80
2019-03-04T15:11:20.795Z,7.90
2019-03-04T15:13:49.916Z,8.00
2019-03-04T15:16:19.067Z,8.00
2019-03-04T15:18:48.176Z,8.00
2019-03-04T15:21:17.311Z,8.10
2019-03-04T15:23:47.413Z,8.20
2019-03-04T15:26:16.522Z,8.30
2019-03-04T15:28:46.651Z,8.40
2019-03-04T15:31:15.771Z,8.50
2019-03-04T15:33:45.016Z,8.60
2019-03-04T15:36:14.146Z,8.80
2019-03-04T15:38:43.258Z,8.80
2019-03-04T15:41:12.671Z,8.90
2019-03-04T15:43:41.802Z,9.00
2019-03-04T15:46:10.995Z,9.00
2019-03-04T15:48:40.131Z,9.10
2019-03-04T15:51:09.248Z,9.20
2019-03-04T15:53:38.388Z,9.20
2019-03-04T15:56:07.503Z,9.30
2019-03-04T15:58:36.639Z,9.20
2019-03-04T16:01:06.179Z,9.20
2019-03-04T16:03:36.720Z,9.20
2019-03-04T16:06:07.198Z,9.30
2019-03-04T16:08:36.338Z,9.30
2019-03-04T16:11:05.454Z,9.30
2019-03-04T16:13:35.543Z,9.30
2019-03-04T16:16:04.871Z,9.40
2019-03-04T16:18:33.986Z,9.50
2019-03-04T16:21:03.098Z,9.40
2019-03-04T16:23:32.247Z,9.40
2019-03-04T16:26:04.727Z,9.40
2019-03-04T16:28:33.884Z,9.50
2019-03-04T16:31:03.039Z,9.50
2019-03-04T16:33:32.147Z,9.40
2019-03-04T16:36:03.080Z,9.30
2019-03-04T16:38:32.214Z,9.30
2019-03-04T16:41:03.220Z,9.20
2019-03-04T16:43:32.350Z,9.20
2019-03-04T16:46:01.458Z,9.20
2019-03-04T16:48:30.619Z,9.10
2019-03-04T16:50:59.732Z,9.10
2019-03-04T16:53:31.509Z,9.10
2019-03-04T16:56:00.711Z,9.10
2019-03-04T16:58:31.175Z,9.20
2019-03-04T17:01:00.328Z,9.10
2019-03-04T17:03:30.187Z,9.20
2019-03-04T17:05:59.306Z,9.20
2019-03-04T17:08:28.446Z,9.20
2019-03-04T17:10:57.579Z,9.30
2019-03-04T17:13:27.664Z,9.40
2019-03-04T17:15:56.805Z,9.40
2019-03-04T17:18:26.284Z,9.50
2019-03-04T17:20:55.434Z,9.50
2019-03-04T17:23:24.552Z,9.50
2019-03-04T17:25:53.707Z,9.60
2019-03-04T17:28:22.896Z,9.50
2019-03-04T17:30:52.015Z,9.40
2019-03-04T17:33:21.165Z,9.40
2019-03-04T17:35:50.899Z,9.50
2019-03-04T17:38:20.021Z,9.40
2019-03-04T17:40:49.241Z,9.40
2019-03-04T17:43:18.355Z,9.30
2019-03-04T17:45:47.475Z,9.40
2019-03-04T17:48:17.699Z,9.40
2019-03-04T17:50:47.484Z,9.40
2019-03-04T17:53:16.998Z,9.40
2019-03-04T17:55:47.183Z,9.40
2019-03-04T17:58:16.644Z,9.30
2019-03-04T18:00:53.194Z,9.30
2019-03-04T18:03:22.926Z,9.30
2019-03-04T18:05:52.820Z,9.00
2019-03-04T18:08:21.931Z,8.90
2019-03-04T18:10:51.091Z,8.90
2019-03-04T18:13:20.207Z,9.00
2019-03-04T18:15:49.641Z,9.10
2019-03-04T18:18:18.802Z,9.20
2019-03-04T18:20:47.914Z,9.10
2019-03-04T18:23:17.072Z,9.00
2019-03-04T18:26:06.843Z,9.10
2019-03-04T18:28:57.234Z,9.00
2019-03-04T18:31:38.770Z,8.90
2019-03-04T18:34:39.759Z,8.80
2019-03-04T18:37:31.643Z,8.80
2019-03-04T18:40:24.677Z,8.80
2019-03-04T18:43:15.218Z,8.90
2019-03-04T18:46:04.403Z,8.90
2019-03-04T18:48:39.799Z,8.90
2019-03-04T18:51:08.950Z,9.00
2019-03-04T18:53:39.376Z,9.10
2019-03-04T18:56:08.483Z,9.00
2019-03-04T18:58:37.598Z,9.00
2019-03-04T19:01:06.794Z,9.10
2019-03-04T19:03:35.911Z,9.10
2019-03-04T19:06:05.065Z,9.20
2019-03-04T19:08:34.219Z,9.40
2019-03-04T19:11:04.355Z,9.50
2019-03-04T19:13:33.478Z,9.40
2019-03-04T19:16:02.586Z,9.40
2019-03-04T19:18:31.746Z,9.40
2019-03-04T19:21:01.852Z,9.50
2019-03-04T19:23:31.027Z,9.50
2019-03-04T19:26:00.134Z,9.40
2019-03-04T19:28:29.290Z,9.40
2019-03-04T19:30:58.431Z,9.50
2019-03-04T19:33:27.591Z,9.50
2019-03-04T19:35:56.703Z,9.40
2019-03-04T19:38:25.823Z,9.40
2019-03-04T19:40:54.995Z,9.40
2019-03-04T19:43:32.712Z,9.30
2019-03-04T19:45:54.923Z,9.30
2019-03-04T19:48:25.427Z,9.20
2019-03-04T19:50:54.711Z,9.20
2019-03-04T19:53:23.872Z,9.10
2019-03-04T19:55:53.028Z,9.10
2019-03-04T19:58:22.410Z,9.00
2019-03-04T20:00:51.576Z,9.10
2019-03-04T20:03:20.856Z,9.20
2019-03-04T20:05:50.036Z,9.20
2019-03-04T20:08:19.192Z,9.10
2019-03-04T20:10:49.427Z,8.90
2019-03-04T20:13:18.559Z,8.90
2019-03-04T20:15:47.671Z,8.90
2019-03-04T20:18:17.894Z,8.90
2019-03-04T20:20:47.011Z,8.90
2019-03-04T20:23:16.153Z,9.00
2019-03-04T20:25:45.267Z,9.10
2019-03-04T20:28:14.463Z,9.00
2019-03-04T20:30:44.067Z,9.00
2019-03-04T20:33:13.183Z,9.00
2019-03-04T20:35:42.575Z,9.00
2019-03-04T20:38:17.659Z,8.90
2019-03-04T20:40:46.771Z,8.80
2019-03-04T20:43:15.903Z,8.70
2019-03-04T20:45:45.022Z,8.60
2019-03-04T20:48:14.134Z,8.50
2019-03-04T20:50:43.279Z,8.50
2019-03-04T20:53:12.396Z,8.50
2019-03-04T20:55:41.553Z,8.40
2019-03-04T20:58:11.646Z,8.30
2019-03-04T21:00:41.255Z,8.30
2019-03-04T21:03:10.364Z,8.40
2019-03-04T21:05:39.479Z,8.50
2019-03-04T21:08:08.639Z,8.60
2019-03-04T21:10:38.120Z,8.70
2019-03-04T21:13:09.143Z,8.60
2019-03-04T21:15:38.291Z,8.70
2019-03-04T21:18:07.400Z,8.80
2019-03-04T21:20:36.521Z,8.90
2019-03-04T21:23:05.651Z,8.80
2019-03-04T21:25:59.231Z,8.80
2019-03-04T21:28:43.261Z,8.70
2019-03-04T21:31:35.092Z,8.70
2019-03-04T21:34:11.206Z,8.70
2019-03-04T21:36:58.760Z,8.60
2019-03-04T21:39:39.435Z,8.60
2019-03-04T21:42:14.630Z,8.60
2019-03-04T21:44:56.087Z,8.50
2019-03-04T21:47:32.143Z,8.50
2019-03-04T21:50:01.273Z,8.40
2019-03-04T21:52:33.986Z,8.50
2019-03-04T21:55:12.197Z,8.50
2019-03-04T21:57:44.639Z,8.50
2019-03-04T22:00:24.024Z,8.40
2019-03-04T22:02:59.149Z,8.40
2019-03-04T22:05:28.433Z,8.30
2019-03-04T22:07:57.547Z,8.20
2019-03-04T22:10:26.686Z,8.10
2019-03-04T22:12:57.366Z,8.20
2019-03-04T22:15:26.772Z,8.20
2019-03-04T22:17:55.886Z,8.20
2019-03-04T22:20:25.016Z,8.20
2019-03-04T22:22:54.157Z,8.20
2019-03-04T22:25:23.349Z,8.30
2019-03-04T22:27:52.479Z,8.40
2019-03-04T22:30:21.929Z,8.40
2019-03-04T22:32:51.035Z,8.40
2019-03-04T22:35:21.306Z,8.30
2019-03-04T22:37:50.435Z,8.20
2019-03-04T22:40:21.387Z,8.30
2019-03-04T22:42:50.523Z,8.30
2019-03-04T22:45:22.291Z,8.40
2019-03-04T22:47:52.127Z,8.40
2019-03-04T22:50:22.397Z,8.30
2019-03-04T22:52:51.529Z,8.40
2019-03-04T22:55:26.828Z,8.30
2019-03-04T22:57:55.945Z,8.40
2019-03-04T23:00:53.903Z,8.40
2019-03-04T23:03:26.547Z,8.40
2019-03-04T23:06:03.487Z,8.30
2019-03-04T23:08:32.602Z,8.30
2019-03-04T23:11:02.348Z,8.40
2019-03-04T23:13:49.851Z,8.40
